MXA214C MMSM-MPTO
Flight info
| Callsign | MXA214C |
|---|---|
| Flight time | 3h 16m |
| Altitude | 35000 |
| Route | TEVOS2G TEVOS UT113 IZT UL423 TAP UA317 BUFEO DCT BITOR DCT VUMAN VUMAN2C |
| Aircraft | A320/M-SDE3FGHIRWY/LB1 |
Departure
| Time | 2026-04-30 18:18 |
|---|---|
| Airport | Felipe Ángeles International Airport (MMSM) |
Arrival
| Time | 2026-04-30 21:34 |
|---|---|
| Airport | Tocumen International Airport (MPTO) |
| Time | Latitude | Longitude | Altitude | Speed | Heading |
|---|---|---|---|---|---|
| 2026-04-30 18:00 | 19.73154 | -99.02569 | 7388 ft | 0 kts | 317° |
| 2026-04-30 18:10 | 19.73102 | -99.02575 | 7388 ft | 3 kts | 47° |
| 2026-04-30 18:11 | 19.73095 | -99.02584 | 7388 ft | 0 kts | 48° |
| 2026-04-30 18:13 | 19.73102 | -99.02556 | 7388 ft | 4 kts | 92° |
| 2026-04-30 18:13 | 19.73091 | -99.02451 | 7388 ft | 7 kts | 107° |
| 2026-04-30 18:14 | 19.72993 | -99.02351 | 7388 ft | 6 kts | 136° |
| 2026-04-30 18:15 | 19.72990 | -99.02348 | 7388 ft | 0 kts | 137° |
| 2026-04-30 18:15 | 19.72989 | -99.02347 | 7388 ft | 1 kts | 137° |
| 2026-04-30 18:16 | 19.72963 | -99.02321 | 7388 ft | 4 kts | 139° |
| 2026-04-30 18:16 | 19.72911 | -99.02264 | 7388 ft | 7 kts | 102° |
| 2026-04-30 18:17 | 19.72934 | -99.02220 | 7388 ft | 8 kts | 49° |
| 2026-04-30 18:17 | 19.73046 | -99.02088 | 7388 ft | 58 kts | 49° |
| 2026-04-30 18:17 | 19.74229 | -99.00639 | 7389 ft | 192 kts | 49° |
| 2026-04-30 18:18 | 19.75175 | -98.99478 | 7756 ft | 213 kts | 49° |
| 2026-04-30 18:18 | 19.76174 | -98.98250 | 8377 ft | 228 kts | 48° |
| 2026-04-30 18:18 | 19.77244 | -98.96936 | 9032 ft | 244 kts | 48° |
| 2026-04-30 18:18 | 19.78362 | -98.95573 | 9629 ft | 246 kts | 48° |
| 2026-04-30 18:19 | 19.79491 | -98.94172 | 9980 ft | 259 kts | 54° |
| 2026-04-30 18:19 | 19.80240 | -98.92391 | 10236 ft | 276 kts | 79° |
| 2026-04-30 18:19 | 19.80225 | -98.90294 | 10462 ft | 293 kts | 102° |
| 2026-04-30 18:19 | 19.79412 | -98.88285 | 10981 ft | 300 kts | 124° |
| 2026-04-30 18:20 | 19.77919 | -98.86741 | 11622 ft | 304 kts | 147° |
| 2026-04-30 18:20 | 19.75940 | -98.85943 | 12309 ft | 307 kts | 170° |
| 2026-04-30 18:20 | 19.73826 | -98.86017 | 12977 ft | 312 kts | 192° |
| 2026-04-30 18:20 | 19.71833 | -98.87018 | 13608 ft | 317 kts | 217° |
| 2026-04-30 18:21 | 19.70386 | -98.88800 | 14245 ft | 321 kts | 238° |
| 2026-04-30 18:21 | 19.69291 | -98.90845 | 14940 ft | 322 kts | 241° |
| 2026-04-30 18:21 | 19.68220 | -98.92965 | 15523 ft | 327 kts | 241° |
| 2026-04-30 18:21 | 19.67099 | -98.95091 | 16101 ft | 331 kts | 239° |
| 2026-04-30 18:22 | 19.65903 | -98.97199 | 16685 ft | 335 kts | 237° |
| 2026-04-30 18:22 | 19.63374 | -99.01416 | 17867 ft | 341 kts | 237° |
| 2026-04-30 18:22 | 19.62100 | -99.03550 | 18438 ft | 345 kts | 237° |
| 2026-04-30 18:23 | 19.60841 | -99.05691 | 19015 ft | 348 kts | 238° |
| 2026-04-30 18:23 | 19.59476 | -99.07833 | 19581 ft | 350 kts | 229° |
| 2026-04-30 18:23 | 19.57680 | -99.09576 | 20113 ft | 351 kts | 212° |
| 2026-04-30 18:23 | 19.55457 | -99.10644 | 20636 ft | 352 kts | 193° |
| 2026-04-30 18:24 | 19.50616 | -99.10473 | 21629 ft | 354 kts | 160° |
| 2026-04-30 18:24 | 19.48449 | -99.09325 | 22078 ft | 356 kts | 143° |
| 2026-04-30 18:24 | 19.46631 | -99.07508 | 22526 ft | 358 kts | 127° |
| 2026-04-30 18:25 | 19.45309 | -99.05279 | 23000 ft | 360 kts | 120° |
| 2026-04-30 18:25 | 19.42038 | -99.01205 | 23820 ft | 369 kts | 142° |
| 2026-04-30 18:25 | 19.39774 | -98.99903 | 24159 ft | 373 kts | 161° |
| 2026-04-30 18:26 | 19.34711 | -98.98672 | 25107 ft | 376 kts | 168° |
| 2026-04-30 18:26 | 19.32141 | -98.98094 | 25456 ft | 380 kts | 167° |
| 2026-04-30 18:26 | 19.29547 | -98.97428 | 25851 ft | 383 kts | 165° |
| 2026-04-30 18:27 | 19.24314 | -98.96388 | 26667 ft | 388 kts | 175° |
| 2026-04-30 18:27 | 19.21616 | -98.96193 | 27064 ft | 390 kts | 177° |
| 2026-04-30 18:28 | 19.16140 | -98.96005 | 27856 ft | 396 kts | 179° |
| 2026-04-30 18:28 | 19.13366 | -98.95910 | 28240 ft | 398 kts | 178° |
| 2026-04-30 18:28 | 19.07790 | -98.95625 | 29043 ft | 403 kts | 177° |
| 2026-04-30 18:29 | 19.04992 | -98.95466 | 29420 ft | 405 kts | 177° |
| 2026-04-30 18:29 | 18.96534 | -98.95041 | 30204 ft | 405 kts | 178° |
| 2026-04-30 18:30 | 18.85255 | -98.94474 | 30148 ft | 404 kts | 177° |
| 2026-04-30 18:31 | 18.76816 | -98.94053 | 30133 ft | 405 kts | 178° |
| 2026-04-30 18:32 | 18.68407 | -98.93636 | 30132 ft | 405 kts | 176° |
| 2026-04-30 18:32 | 18.63114 | -98.91870 | 30266 ft | 404 kts | 143° |
| 2026-04-30 18:33 | 18.60936 | -98.90004 | 30653 ft | 403 kts | 138° |
| 2026-04-30 18:33 | 18.56778 | -98.86059 | 31601 ft | 402 kts | 138° |
| 2026-04-30 18:33 | 18.54654 | -98.84143 | 32041 ft | 402 kts | 140° |
| 2026-04-30 18:34 | 18.52460 | -98.82261 | 32494 ft | 401 kts | 141° |
| 2026-04-30 18:34 | 18.48131 | -98.78624 | 33159 ft | 405 kts | 140° |
| 2026-04-30 18:34 | 18.45924 | -98.76728 | 33271 ft | 413 kts | 140° |
| 2026-04-30 18:35 | 18.43680 | -98.74770 | 33378 ft | 421 kts | 139° |
| 2026-04-30 18:35 | 18.41411 | -98.72785 | 33490 ft | 428 kts | 140° |
| 2026-04-30 18:35 | 18.39085 | -98.70764 | 33547 ft | 437 kts | 140° |
| 2026-04-30 18:36 | 18.34373 | -98.66710 | 34388 ft | 434 kts | 140° |
| 2026-04-30 18:36 | 18.32042 | -98.64709 | 34859 ft | 431 kts | 140° |
| 2026-04-30 18:36 | 18.27362 | -98.60675 | 35214 ft | 440 kts | 139° |
| 2026-04-30 18:37 | 18.24973 | -98.58610 | 35204 ft | 449 kts | 139° |
| 2026-04-30 18:37 | 18.20045 | -98.54361 | 35199 ft | 465 kts | 140° |
| 2026-04-30 18:38 | 18.15085 | -98.49902 | 35159 ft | 471 kts | 131° |
| 2026-04-30 18:38 | 18.11183 | -98.44352 | 35191 ft | 474 kts | 121° |
| 2026-04-30 18:39 | 18.07654 | -98.38465 | 35176 ft | 476 kts | 121° |
| 2026-04-30 18:39 | 18.03975 | -98.32647 | 35165 ft | 477 kts | 123° |
| 2026-04-30 18:40 | 18.00237 | -98.26954 | 35157 ft | 476 kts | 123° |
| 2026-04-30 18:40 | 17.96541 | -98.21160 | 35151 ft | 476 kts | 122° |
| 2026-04-30 18:41 | 17.92861 | -98.15371 | 35153 ft | 476 kts | 122° |
| 2026-04-30 18:41 | 17.89775 | -98.10578 | 35154 ft | 476 kts | 122° |
| 2026-04-30 18:42 | 17.85465 | -98.03878 | 35155 ft | 476 kts | 122° |
| 2026-04-30 18:42 | 17.80520 | -97.96171 | 35157 ft | 476 kts | 122° |
| 2026-04-30 18:45 | 17.59580 | -97.64981 | 35099 ft | 476 kts | 125° |
| 2026-04-30 18:46 | 17.55647 | -97.59399 | 35105 ft | 475 kts | 125° |
| 2026-04-30 18:46 | 17.51715 | -97.53821 | 35081 ft | 475 kts | 125° |
| 2026-04-30 18:47 | 17.47777 | -97.48255 | 35071 ft | 475 kts | 125° |
| 2026-04-30 18:47 | 17.43897 | -97.42656 | 35084 ft | 474 kts | 123° |
| 2026-04-30 18:48 | 17.40166 | -97.36963 | 35072 ft | 474 kts | 122° |
| 2026-04-30 18:48 | 17.36432 | -97.31235 | 35084 ft | 474 kts | 123° |
| 2026-04-30 18:49 | 17.32690 | -97.25550 | 35091 ft | 474 kts | 123° |
| 2026-04-30 18:49 | 17.28974 | -97.19898 | 35105 ft | 473 kts | 123° |
| 2026-04-30 18:50 | 17.25245 | -97.14222 | 35118 ft | 473 kts | 123° |
| 2026-04-30 18:50 | 17.21495 | -97.08541 | 35129 ft | 473 kts | 123° |
| 2026-04-30 18:51 | 17.17690 | -97.02967 | 35139 ft | 473 kts | 124° |
| 2026-04-30 18:51 | 17.13849 | -96.97376 | 35154 ft | 473 kts | 124° |
| 2026-04-30 18:52 | 17.10019 | -96.91788 | 35160 ft | 473 kts | 124° |
| 2026-04-30 18:52 | 17.06189 | -96.86200 | 35172 ft | 472 kts | 124° |
| 2026-04-30 18:53 | 17.02346 | -96.80609 | 35176 ft | 472 kts | 124° |
| 2026-04-30 18:53 | 16.98518 | -96.75032 | 35179 ft | 472 kts | 122° |
| 2026-04-30 18:54 | 16.95773 | -96.68911 | 35169 ft | 467 kts | 107° |
| 2026-04-30 18:54 | 16.93897 | -96.62414 | 35145 ft | 467 kts | 104° |
| 2026-04-30 18:55 | 16.92022 | -96.55955 | 35142 ft | 467 kts | 106° |
| 2026-04-30 18:55 | 16.88963 | -96.46285 | 35144 ft | 466 kts | 106° |
| 2026-04-30 18:56 | 16.86020 | -96.36604 | 35141 ft | 466 kts | 106° |
| 2026-04-30 18:57 | 16.83032 | -96.26947 | 35130 ft | 466 kts | 106° |
| 2026-04-30 18:57 | 16.81044 | -96.20516 | 35127 ft | 465 kts | 106° |
| 2026-04-30 18:58 | 16.78065 | -96.10869 | 35101 ft | 465 kts | 106° |
| 2026-04-30 18:59 | 16.75081 | -96.01241 | 35075 ft | 464 kts | 106° |
| 2026-04-30 19:00 | 16.71116 | -95.88473 | 35050 ft | 462 kts | 106° |
| 2026-04-30 19:01 | 16.67145 | -95.75710 | 34967 ft | 462 kts | 106° |
| 2026-04-30 19:02 | 16.64174 | -95.66187 | 34935 ft | 462 kts | 106° |
| 2026-04-30 19:03 | 16.60180 | -95.53420 | 34939 ft | 463 kts | 106° |
| 2026-04-30 19:04 | 16.56190 | -95.40687 | 34974 ft | 462 kts | 106° |
| 2026-04-30 19:05 | 16.52185 | -95.27932 | 34987 ft | 462 kts | 106° |
| 2026-04-30 19:06 | 16.48176 | -95.15208 | 34970 ft | 462 kts | 106° |
| 2026-04-30 19:06 | 16.44399 | -95.06025 | 34938 ft | 465 kts | 119° |
| 2026-04-30 19:07 | 16.39101 | -94.97536 | 34903 ft | 466 kts | 120° |
| 2026-04-30 19:08 | 16.32244 | -94.86097 | 34858 ft | 465 kts | 119° |
| 2026-04-30 19:09 | 16.27044 | -94.77576 | 34877 ft | 464 kts | 120° |
| 2026-04-30 19:09 | 16.23599 | -94.71884 | 34875 ft | 464 kts | 119° |
| 2026-04-30 19:10 | 16.16715 | -94.60536 | 34903 ft | 463 kts | 119° |
| 2026-04-30 19:11 | 16.11543 | -94.52034 | 34900 ft | 463 kts | 119° |
| 2026-04-30 19:12 | 16.08127 | -94.46418 | 34899 ft | 462 kts | 119° |
| 2026-04-30 19:12 | 16.04681 | -94.40758 | 34898 ft | 461 kts | 119° |
| 2026-04-30 19:13 | 15.97800 | -94.29474 | 34897 ft | 460 kts | 119° |
| 2026-04-30 19:14 | 15.94372 | -94.23857 | 34876 ft | 459 kts | 119° |
| 2026-04-30 19:14 | 15.90962 | -94.18278 | 34834 ft | 460 kts | 119° |
| 2026-04-30 19:15 | 15.87538 | -94.12672 | 34818 ft | 460 kts | 119° |
| 2026-04-30 19:15 | 15.82379 | -94.04241 | 34815 ft | 460 kts | 119° |
| 2026-04-30 19:16 | 15.78944 | -93.98636 | 34822 ft | 461 kts | 119° |
| 2026-04-30 19:17 | 15.73799 | -93.90239 | 34848 ft | 460 kts | 119° |
| 2026-04-30 19:17 | 15.68632 | -93.81819 | 34874 ft | 460 kts | 119° |
| 2026-04-30 19:18 | 15.64030 | -93.74328 | 34856 ft | 460 kts | 119° |
| 2026-04-30 19:19 | 15.60602 | -93.68758 | 34870 ft | 460 kts | 119° |
| 2026-04-30 19:19 | 15.55434 | -93.60362 | 34855 ft | 460 kts | 119° |
| 2026-04-30 19:20 | 15.51984 | -93.54763 | 34848 ft | 460 kts | 119° |
| 2026-04-30 19:21 | 15.46813 | -93.46372 | 34838 ft | 460 kts | 119° |
| 2026-04-30 19:22 | 15.39910 | -93.35192 | 34851 ft | 460 kts | 119° |
| 2026-04-30 19:23 | 15.29566 | -93.18472 | 34825 ft | 460 kts | 119° |
| 2026-04-30 19:24 | 15.24360 | -93.10061 | 34821 ft | 460 kts | 119° |
| 2026-04-30 19:25 | 15.15721 | -92.96136 | 34823 ft | 461 kts | 119° |
| 2026-04-30 19:26 | 15.08778 | -92.84969 | 34814 ft | 461 kts | 119° |
| 2026-04-30 19:27 | 15.03566 | -92.76589 | 34825 ft | 461 kts | 119° |
| 2026-04-30 19:28 | 14.98343 | -92.68213 | 34826 ft | 461 kts | 119° |
| 2026-04-30 19:29 | 14.91380 | -92.57049 | 34819 ft | 462 kts | 119° |
| 2026-04-30 19:30 | 14.84402 | -92.45881 | 34838 ft | 462 kts | 119° |
| 2026-04-30 19:31 | 14.77571 | -92.34690 | 34816 ft | 462 kts | 117° |
| 2026-04-30 19:31 | 14.72769 | -92.26043 | 34824 ft | 461 kts | 116° |
| 2026-04-30 19:32 | 14.69557 | -92.20288 | 34829 ft | 462 kts | 117° |
| 2026-04-30 19:32 | 14.66327 | -92.14544 | 34825 ft | 462 kts | 117° |
| 2026-04-30 19:33 | 14.63147 | -92.08820 | 34816 ft | 462 kts | 116° |
| 2026-04-30 19:33 | 14.59969 | -92.03042 | 34817 ft | 462 kts | 116° |
| 2026-04-30 19:34 | 14.56777 | -91.97285 | 34827 ft | 462 kts | 117° |
| 2026-04-30 19:35 | 14.51966 | -91.88624 | 34818 ft | 463 kts | 117° |
| 2026-04-30 19:35 | 14.48764 | -91.82855 | 34824 ft | 463 kts | 116° |
| 2026-04-30 19:36 | 14.45562 | -91.77083 | 34827 ft | 463 kts | 117° |
| 2026-04-30 19:36 | 14.40763 | -91.68468 | 34807 ft | 464 kts | 117° |
| 2026-04-30 19:37 | 14.37553 | -91.62697 | 34812 ft | 463 kts | 117° |
| 2026-04-30 19:37 | 14.34336 | -91.56922 | 34807 ft | 463 kts | 117° |
| 2026-04-30 19:38 | 14.31122 | -91.51158 | 34824 ft | 463 kts | 117° |
| 2026-04-30 19:38 | 14.27912 | -91.45404 | 34815 ft | 463 kts | 117° |
| 2026-04-30 19:39 | 14.24697 | -91.39644 | 34818 ft | 463 kts | 117° |
| 2026-04-30 19:39 | 14.21484 | -91.33895 | 34835 ft | 463 kts | 117° |
| 2026-04-30 19:40 | 14.18265 | -91.28139 | 34835 ft | 463 kts | 117° |
| 2026-04-30 19:40 | 14.15100 | -91.22402 | 34851 ft | 462 kts | 116° |
| 2026-04-30 19:41 | 14.11930 | -91.16637 | 34865 ft | 462 kts | 117° |
| 2026-04-30 19:41 | 14.08740 | -91.10885 | 34839 ft | 462 kts | 117° |
| 2026-04-30 19:42 | 14.05546 | -91.05123 | 34833 ft | 462 kts | 117° |
| 2026-04-30 19:42 | 14.02360 | -90.99361 | 34835 ft | 462 kts | 117° |
| 2026-04-30 19:43 | 13.99166 | -90.93605 | 34823 ft | 462 kts | 118° |
| 2026-04-30 19:44 | 13.94395 | -90.85004 | 34789 ft | 463 kts | 117° |
| 2026-04-30 19:44 | 13.92051 | -90.78912 | 34784 ft | 460 kts | 105° |
| 2026-04-30 19:45 | 13.90361 | -90.72559 | 34778 ft | 460 kts | 103° |
| 2026-04-30 19:45 | 13.88645 | -90.66200 | 34783 ft | 461 kts | 105° |
| 2026-04-30 19:46 | 13.86788 | -90.59860 | 34791 ft | 461 kts | 105° |
| 2026-04-30 19:46 | 13.84972 | -90.53513 | 34812 ft | 461 kts | 104° |
| 2026-04-30 19:47 | 13.83211 | -90.47218 | 34870 ft | 460 kts | 105° |
| 2026-04-30 19:47 | 13.81413 | -90.40892 | 34887 ft | 460 kts | 105° |
| 2026-04-30 19:48 | 13.79605 | -90.34565 | 34904 ft | 460 kts | 105° |
| 2026-04-30 19:48 | 13.77807 | -90.28262 | 34912 ft | 459 kts | 105° |
| 2026-04-30 19:49 | 13.75982 | -90.21967 | 34895 ft | 458 kts | 105° |
| 2026-04-30 19:49 | 13.73247 | -90.12533 | 34900 ft | 458 kts | 105° |
| 2026-04-30 19:50 | 13.71437 | -90.06236 | 34913 ft | 458 kts | 105° |
| 2026-04-30 19:50 | 13.69648 | -89.99925 | 34925 ft | 459 kts | 105° |
| 2026-04-30 19:51 | 13.67850 | -89.93633 | 34954 ft | 459 kts | 105° |
| 2026-04-30 19:51 | 13.66051 | -89.87360 | 34944 ft | 460 kts | 105° |
| 2026-04-30 19:52 | 13.64246 | -89.81043 | 34918 ft | 461 kts | 105° |
| 2026-04-30 19:52 | 13.62432 | -89.74713 | 34958 ft | 460 kts | 105° |
| 2026-04-30 19:53 | 13.60617 | -89.68398 | 34959 ft | 461 kts | 105° |
| 2026-04-30 19:53 | 13.59108 | -89.63140 | 34929 ft | 461 kts | 105° |
| 2026-04-30 19:54 | 13.57286 | -89.56799 | 34902 ft | 463 kts | 105° |
| 2026-04-30 19:54 | 13.55462 | -89.50458 | 34903 ft | 463 kts | 105° |
| 2026-04-30 19:55 | 13.53628 | -89.44092 | 34888 ft | 465 kts | 106° |
| 2026-04-30 19:55 | 13.51787 | -89.37707 | 34877 ft | 466 kts | 106° |
| 2026-04-30 19:56 | 13.49938 | -89.31308 | 34904 ft | 467 kts | 106° |
| 2026-04-30 19:56 | 13.48092 | -89.24918 | 34935 ft | 467 kts | 106° |
| 2026-04-30 19:57 | 13.46242 | -89.18519 | 34899 ft | 467 kts | 106° |
| 2026-04-30 19:57 | 13.44382 | -89.12097 | 34858 ft | 467 kts | 106° |
| 2026-04-30 19:58 | 13.42394 | -89.06087 | 34813 ft | 467 kts | 112° |
| 2026-04-30 19:58 | 13.39718 | -88.99921 | 34780 ft | 467 kts | 115° |
| 2026-04-30 19:59 | 13.36986 | -88.93867 | 34769 ft | 467 kts | 114° |
| 2026-04-30 20:00 | 13.33043 | -88.84741 | 34762 ft | 469 kts | 114° |
| 2026-04-30 20:00 | 13.30361 | -88.78613 | 34759 ft | 470 kts | 114° |
| 2026-04-30 20:01 | 13.26318 | -88.69411 | 34750 ft | 472 kts | 114° |
| 2026-04-30 20:01 | 13.23619 | -88.63235 | 34736 ft | 473 kts | 114° |
| 2026-04-30 20:02 | 13.19580 | -88.54032 | 34806 ft | 473 kts | 115° |
| 2026-04-30 20:03 | 13.15518 | -88.44780 | 34784 ft | 474 kts | 115° |
| 2026-04-30 20:03 | 13.12814 | -88.38629 | 34776 ft | 474 kts | 115° |
| 2026-04-30 20:04 | 13.10097 | -88.32447 | 34736 ft | 474 kts | 115° |
| 2026-04-30 20:05 | 13.06036 | -88.23230 | 34681 ft | 474 kts | 115° |
| 2026-04-30 20:05 | 13.01959 | -88.13967 | 34685 ft | 475 kts | 115° |
| 2026-04-30 20:06 | 12.99216 | -88.07748 | 34678 ft | 476 kts | 115° |
| 2026-04-30 20:06 | 12.96500 | -88.01611 | 34692 ft | 476 kts | 115° |
| 2026-04-30 20:07 | 12.93767 | -87.95411 | 34696 ft | 477 kts | 116° |
| 2026-04-30 20:08 | 12.89638 | -87.86079 | 34708 ft | 479 kts | 116° |
| 2026-04-30 20:08 | 12.86881 | -87.79852 | 34718 ft | 480 kts | 116° |
| 2026-04-30 20:09 | 12.84121 | -87.73654 | 34727 ft | 481 kts | 116° |
| 2026-04-30 20:09 | 12.79939 | -87.64291 | 34763 ft | 481 kts | 116° |
| 2026-04-30 20:10 | 12.75755 | -87.54917 | 34793 ft | 482 kts | 116° |
| 2026-04-30 20:11 | 12.71568 | -87.45551 | 34798 ft | 482 kts | 116° |
| 2026-04-30 20:11 | 12.68771 | -87.39299 | 34779 ft | 483 kts | 116° |
| 2026-04-30 20:12 | 12.64571 | -87.29912 | 34766 ft | 483 kts | 116° |
| 2026-04-30 20:13 | 12.61761 | -87.23649 | 34773 ft | 483 kts | 116° |
| 2026-04-30 20:13 | 12.58974 | -87.17431 | 34774 ft | 483 kts | 116° |
| 2026-04-30 20:14 | 12.56169 | -87.11175 | 34778 ft | 483 kts | 117° |
| 2026-04-30 20:14 | 12.53352 | -87.04910 | 34779 ft | 483 kts | 117° |
| 2026-04-30 20:15 | 12.50548 | -86.98646 | 34789 ft | 484 kts | 116° |
| 2026-04-30 20:15 | 12.47741 | -86.92375 | 34778 ft | 484 kts | 117° |
| 2026-04-30 20:16 | 12.44924 | -86.86112 | 34785 ft | 484 kts | 117° |
| 2026-04-30 20:16 | 12.42111 | -86.79851 | 34799 ft | 484 kts | 117° |
| 2026-04-30 20:17 | 12.39295 | -86.73578 | 34771 ft | 484 kts | 117° |
| 2026-04-30 20:17 | 12.36497 | -86.67356 | 34762 ft | 484 kts | 117° |
| 2026-04-30 20:18 | 12.33676 | -86.61092 | 34745 ft | 485 kts | 117° |
| 2026-04-30 20:18 | 12.30836 | -86.54785 | 34736 ft | 485 kts | 117° |
| 2026-04-30 20:19 | 12.28026 | -86.48552 | 34762 ft | 485 kts | 117° |
| 2026-04-30 20:19 | 12.25194 | -86.42279 | 34743 ft | 485 kts | 117° |
| 2026-04-30 20:20 | 12.22366 | -86.36009 | 34772 ft | 485 kts | 117° |
| 2026-04-30 20:20 | 12.19536 | -86.29743 | 34750 ft | 485 kts | 117° |
| 2026-04-30 20:21 | 12.16700 | -86.23474 | 34729 ft | 485 kts | 117° |
| 2026-04-30 20:21 | 12.13821 | -86.17306 | 34716 ft | 483 kts | 123° |
| 2026-04-30 20:22 | 12.10111 | -86.11601 | 34732 ft | 480 kts | 129° |
| 2026-04-30 20:22 | 12.06176 | -86.06085 | 34720 ft | 480 kts | 129° |
| 2026-04-30 20:23 | 12.02318 | -86.00495 | 34725 ft | 481 kts | 127° |
| 2026-04-30 20:23 | 11.98527 | -85.94864 | 34729 ft | 481 kts | 128° |
| 2026-04-30 20:24 | 11.94685 | -85.89283 | 34739 ft | 481 kts | 128° |
| 2026-04-30 20:24 | 11.90821 | -85.83698 | 34747 ft | 481 kts | 128° |
| 2026-04-30 20:25 | 11.85073 | -85.75304 | 34755 ft | 481 kts | 128° |
| 2026-04-30 20:26 | 11.79299 | -85.66925 | 34760 ft | 481 kts | 128° |
| 2026-04-30 20:26 | 11.73526 | -85.58536 | 34785 ft | 480 kts | 128° |
| 2026-04-30 20:27 | 11.65863 | -85.47405 | 34770 ft | 481 kts | 128° |
| 2026-04-30 20:28 | 11.58154 | -85.36244 | 34774 ft | 481 kts | 128° |
| 2026-04-30 20:30 | 11.49510 | -85.22971 | 34782 ft | 482 kts | 126° |
| 2026-04-30 20:31 | 11.38477 | -85.05840 | 34778 ft | 482 kts | 126° |
| 2026-04-30 20:32 | 11.29256 | -84.91546 | 34756 ft | 482 kts | 126° |
| 2026-04-30 20:33 | 11.23725 | -84.82983 | 34782 ft | 482 kts | 126° |
| 2026-04-30 20:34 | 11.18183 | -84.74405 | 34802 ft | 482 kts | 126° |
| 2026-04-30 20:35 | 11.12641 | -84.65836 | 34814 ft | 482 kts | 126° |
| 2026-04-30 20:35 | 11.07095 | -84.57274 | 34817 ft | 482 kts | 126° |
| 2026-04-30 20:36 | 11.03251 | -84.51757 | 34816 ft | 481 kts | 129° |
| 2026-04-30 20:37 | 10.97199 | -84.43580 | 34837 ft | 480 kts | 130° |
| 2026-04-30 20:37 | 10.93208 | -84.38132 | 34827 ft | 480 kts | 129° |
| 2026-04-30 20:38 | 10.89247 | -84.32702 | 34820 ft | 480 kts | 130° |
| 2026-04-30 20:38 | 10.85222 | -84.27227 | 34815 ft | 480 kts | 130° |
| 2026-04-30 20:39 | 10.79223 | -84.19056 | 34845 ft | 480 kts | 130° |
| 2026-04-30 20:40 | 10.73256 | -84.10935 | 34865 ft | 481 kts | 130° |
| 2026-04-30 20:40 | 10.69178 | -84.05551 | 34883 ft | 479 kts | 133° |
| 2026-04-30 20:41 | 10.62700 | -83.97804 | 34942 ft | 478 kts | 134° |
| 2026-04-30 20:41 | 10.58347 | -83.92670 | 34939 ft | 479 kts | 134° |
| 2026-04-30 20:42 | 10.54070 | -83.87531 | 34937 ft | 479 kts | 134° |
| 2026-04-30 20:43 | 10.47818 | -83.79597 | 34884 ft | 485 kts | 121° |
| 2026-04-30 20:43 | 10.45135 | -83.73312 | 34872 ft | 488 kts | 114° |
| 2026-04-30 20:44 | 10.41272 | -83.63710 | 34860 ft | 487 kts | 117° |
| 2026-04-30 20:45 | 10.35771 | -83.51158 | 34873 ft | 487 kts | 116° |
| 2026-04-30 20:45 | 10.33096 | -83.44802 | 34875 ft | 487 kts | 116° |
| 2026-04-30 20:46 | 10.27650 | -83.32183 | 34873 ft | 487 kts | 116° |
| 2026-04-30 20:47 | 10.23588 | -83.22703 | 34862 ft | 487 kts | 117° |
| 2026-04-30 20:48 | 10.19519 | -83.13268 | 34847 ft | 487 kts | 117° |
| 2026-04-30 20:48 | 10.16936 | -83.07263 | 34841 ft | 487 kts | 117° |
| 2026-04-30 20:49 | 10.14109 | -83.00689 | 34832 ft | 487 kts | 117° |
| 2026-04-30 20:50 | 10.10009 | -82.91191 | 34799 ft | 488 kts | 117° |
| 2026-04-30 20:50 | 10.07283 | -82.84866 | 34796 ft | 488 kts | 117° |
| 2026-04-30 20:51 | 10.04569 | -82.78577 | 34793 ft | 488 kts | 117° |
| 2026-04-30 20:51 | 10.00429 | -82.69000 | 34794 ft | 488 kts | 117° |
| 2026-04-30 20:52 | 9.97699 | -82.62684 | 34810 ft | 488 kts | 117° |
| 2026-04-30 20:53 | 9.93616 | -82.53250 | 34817 ft | 488 kts | 117° |
| 2026-04-30 20:53 | 9.90885 | -82.46947 | 34808 ft | 489 kts | 117° |
| 2026-04-30 20:54 | 9.86761 | -82.37431 | 34799 ft | 489 kts | 117° |
| 2026-04-30 20:55 | 9.82655 | -82.27956 | 34798 ft | 489 kts | 117° |
| 2026-04-30 20:55 | 9.79932 | -82.21693 | 34799 ft | 489 kts | 117° |
| 2026-04-30 20:56 | 9.75797 | -82.12164 | 34789 ft | 489 kts | 117° |
| 2026-04-30 20:57 | 9.72123 | -82.03720 | 34780 ft | 489 kts | 117° |
| 2026-04-30 20:57 | 9.69361 | -81.97371 | 34774 ft | 489 kts | 117° |
| 2026-04-30 20:58 | 9.65242 | -81.87899 | 34774 ft | 489 kts | 117° |
| 2026-04-30 20:58 | 9.62473 | -81.81554 | 34775 ft | 489 kts | 117° |
| 2026-04-30 20:59 | 9.58352 | -81.72107 | 34787 ft | 489 kts | 117° |
| 2026-04-30 21:00 | 9.52842 | -81.59483 | 34816 ft | 488 kts | 117° |
| 2026-04-30 21:01 | 9.48722 | -81.50047 | 34807 ft | 488 kts | 117° |
| 2026-04-30 21:02 | 9.44602 | -81.40621 | 34798 ft | 488 kts | 117° |
| 2026-04-30 21:02 | 9.41859 | -81.34353 | 34784 ft | 472 kts | 117° |
| 2026-04-30 21:02 | 9.40570 | -81.31392 | 34784 ft | 457 kts | 117° |
| 2026-04-30 21:03 | 9.39301 | -81.28482 | 34654 ft | 446 kts | 117° |
| 2026-04-30 21:03 | 9.38034 | -81.25586 | 34242 ft | 443 kts | 118° |
| 2026-04-30 21:03 | 9.36784 | -81.22742 | 33792 ft | 443 kts | 118° |
| 2026-04-30 21:03 | 9.35543 | -81.19925 | 33349 ft | 441 kts | 118° |
| 2026-04-30 21:04 | 9.34301 | -81.17096 | 32898 ft | 438 kts | 118° |
| 2026-04-30 21:04 | 9.33070 | -81.14290 | 32450 ft | 434 kts | 118° |
| 2026-04-30 21:04 | 9.30642 | -81.08746 | 31554 ft | 427 kts | 117° |
| 2026-04-30 21:05 | 9.29440 | -81.06009 | 31105 ft | 423 kts | 117° |
| 2026-04-30 21:05 | 9.28253 | -81.03304 | 30657 ft | 420 kts | 117° |
| 2026-04-30 21:05 | 9.27080 | -81.00620 | 30211 ft | 417 kts | 116° |
| 2026-04-30 21:05 | 9.26045 | -80.97856 | 29750 ft | 415 kts | 113° |
| 2026-04-30 21:06 | 9.25094 | -80.95110 | 29306 ft | 412 kts | 112° |
| 2026-04-30 21:06 | 9.24187 | -80.92372 | 28858 ft | 410 kts | 111° |
| 2026-04-30 21:06 | 9.23292 | -80.89636 | 28410 ft | 408 kts | 111° |
| 2026-04-30 21:06 | 9.22389 | -80.86922 | 27960 ft | 405 kts | 111° |
| 2026-04-30 21:07 | 9.21490 | -80.84270 | 27519 ft | 402 kts | 111° |
| 2026-04-30 21:07 | 9.20563 | -80.81566 | 27064 ft | 399 kts | 111° |
| 2026-04-30 21:07 | 9.19664 | -80.78939 | 26619 ft | 397 kts | 111° |
| 2026-04-30 21:07 | 9.18771 | -80.76314 | 26168 ft | 395 kts | 111° |
| 2026-04-30 21:08 | 9.17883 | -80.73694 | 25638 ft | 393 kts | 110° |
| 2026-04-30 21:08 | 9.16991 | -80.71062 | 25087 ft | 393 kts | 110° |
| 2026-04-30 21:08 | 9.16103 | -80.68450 | 24540 ft | 392 kts | 110° |
| 2026-04-30 21:08 | 9.15220 | -80.65856 | 23996 ft | 391 kts | 110° |
| 2026-04-30 21:09 | 9.14338 | -80.63260 | 23452 ft | 390 kts | 110° |
| 2026-04-30 21:09 | 9.13455 | -80.60655 | 22905 ft | 389 kts | 110° |
| 2026-04-30 21:09 | 9.12579 | -80.58067 | 22360 ft | 388 kts | 110° |
| 2026-04-30 21:09 | 9.11704 | -80.55496 | 21816 ft | 387 kts | 110° |
| 2026-04-30 21:10 | 9.10827 | -80.52926 | 21269 ft | 385 kts | 110° |
| 2026-04-30 21:10 | 9.09965 | -80.50393 | 20727 ft | 384 kts | 110° |
| 2026-04-30 21:10 | 9.09083 | -80.47801 | 20170 ft | 383 kts | 110° |
| 2026-04-30 21:10 | 9.08220 | -80.45260 | 19623 ft | 382 kts | 110° |
| 2026-04-30 21:11 | 9.07359 | -80.42728 | 19075 ft | 380 kts | 109° |
| 2026-04-30 21:11 | 9.06509 | -80.40230 | 18533 ft | 379 kts | 109° |
| 2026-04-30 21:11 | 9.05842 | -80.37646 | 17979 ft | 378 kts | 103° |
| 2026-04-30 21:11 | 9.05320 | -80.35036 | 17435 ft | 377 kts | 101° |
| 2026-04-30 21:12 | 9.04865 | -80.32441 | 16890 ft | 375 kts | 100° |
| 2026-04-30 21:12 | 9.04421 | -80.29832 | 16340 ft | 374 kts | 100° |
| 2026-04-30 21:12 | 9.03962 | -80.27237 | 15790 ft | 373 kts | 101° |
| 2026-04-30 21:12 | 9.03480 | -80.24662 | 15241 ft | 371 kts | 101° |
| 2026-04-30 21:13 | 9.02985 | -80.22102 | 14694 ft | 370 kts | 101° |
| 2026-04-30 21:13 | 9.02491 | -80.19550 | 14146 ft | 369 kts | 101° |
| 2026-04-30 21:13 | 9.02012 | -80.17036 | 13603 ft | 367 kts | 101° |
| 2026-04-30 21:13 | 9.01537 | -80.14500 | 13053 ft | 365 kts | 101° |
| 2026-04-30 21:14 | 9.01061 | -80.11947 | 12496 ft | 363 kts | 101° |
| 2026-04-30 21:14 | 9.00598 | -80.09479 | 11954 ft | 360 kts | 101° |
| 2026-04-30 21:14 | 9.00131 | -80.07001 | 11404 ft | 358 kts | 100° |
| 2026-04-30 21:14 | 8.99664 | -80.04532 | 10853 ft | 355 kts | 100° |
| 2026-04-30 21:15 | 8.99200 | -80.02085 | 10180 ft | 355 kts | 100° |
| 2026-04-30 21:15 | 8.98736 | -79.99622 | 9174 ft | 366 kts | 99° |
| 2026-04-30 21:15 | 8.98253 | -79.97037 | 7914 ft | 385 kts | 99° |
| 2026-04-30 21:15 | 8.97636 | -79.94345 | 6248 ft | 408 kts | 107° |
| 2026-04-30 21:16 | 8.96688 | -79.91808 | 6281 ft | 345 kts | 118° |
| 2026-04-30 21:16 | 8.95336 | -79.89900 | 7007 ft | 329 kts | 129° |
| 2026-04-30 21:16 | 8.93665 | -79.88306 | 7033 ft | 329 kts | 142° |
| 2026-04-30 21:16 | 8.91708 | -79.87297 | 7505 ft | 312 kts | 162° |
| 2026-04-30 21:17 | 8.89620 | -79.86975 | 7659 ft | 294 kts | 175° |
| 2026-04-30 21:17 | 8.87512 | -79.86902 | 6880 ft | 317 kts | 179° |
| 2026-04-30 21:17 | 8.85102 | -79.86804 | 4079 ft | 385 kts | 177° |
| 2026-04-30 21:17 | 8.82723 | -79.86694 | 5880 ft | 292 kts | 177° |
| 2026-04-30 21:18 | 8.80750 | -79.86597 | 6064 ft | 281 kts | 177° |
| 2026-04-30 21:18 | 8.78835 | -79.86498 | 6452 ft | 282 kts | 176° |
| 2026-04-30 21:18 | 8.76840 | -79.86390 | 6862 ft | 291 kts | 176° |
| 2026-04-30 21:18 | 8.74797 | -79.86279 | 7164 ft | 295 kts | 176° |
| 2026-04-30 21:19 | 8.72768 | -79.86026 | 7205 ft | 296 kts | 168° |
| 2026-04-30 21:19 | 8.70754 | -79.85550 | 7207 ft | 296 kts | 165° |
| 2026-04-30 21:19 | 8.68765 | -79.85013 | 7204 ft | 296 kts | 164° |
| 2026-04-30 21:19 | 8.66780 | -79.84457 | 7202 ft | 296 kts | 163° |
| 2026-04-30 21:20 | 8.64800 | -79.83897 | 7201 ft | 296 kts | 163° |
| 2026-04-30 21:20 | 8.62813 | -79.83334 | 7200 ft | 296 kts | 163° |
| 2026-04-30 21:20 | 8.60878 | -79.82656 | 7191 ft | 295 kts | 153° |
| 2026-04-30 21:20 | 8.59152 | -79.81549 | 7199 ft | 294 kts | 140° |
| 2026-04-30 21:21 | 8.57585 | -79.80215 | 7203 ft | 294 kts | 137° |
| 2026-04-30 21:21 | 8.56070 | -79.78821 | 6996 ft | 293 kts | 135° |
| 2026-04-30 21:21 | 8.53172 | -79.75967 | 6208 ft | 290 kts | 134° |
| 2026-04-30 21:22 | 8.51732 | -79.74524 | 5824 ft | 290 kts | 134° |
| 2026-04-30 21:22 | 8.47599 | -79.70230 | 4621 ft | 281 kts | 124° |
| 2026-04-30 21:23 | 8.46614 | -79.68516 | 4213 ft | 277 kts | 110° |
| 2026-04-30 21:23 | 8.46309 | -79.66635 | 3959 ft | 271 kts | 84° |
| 2026-04-30 21:23 | 8.47914 | -79.63359 | 3971 ft | 267 kts | 40° |
| 2026-04-30 21:24 | 8.49503 | -79.62409 | 3999 ft | 265 kts | 20° |
| 2026-04-30 21:24 | 8.51264 | -79.61829 | 4042 ft | 266 kts | 16° |
| 2026-04-30 21:24 | 8.53026 | -79.61290 | 4029 ft | 265 kts | 17° |
| 2026-04-30 21:24 | 8.54784 | -79.60685 | 4016 ft | 265 kts | 19° |
| 2026-04-30 21:25 | 8.58231 | -79.59361 | 4005 ft | 265 kts | 20° |
| 2026-04-30 21:25 | 8.59960 | -79.58718 | 4001 ft | 264 kts | 19° |
| 2026-04-30 21:25 | 8.61694 | -79.58090 | 4000 ft | 265 kts | 19° |
| 2026-04-30 21:26 | 8.65161 | -79.56818 | 3998 ft | 265 kts | 20° |
| 2026-04-30 21:26 | 8.66893 | -79.56175 | 3967 ft | 265 kts | 20° |
| 2026-04-30 21:27 | 8.70350 | -79.54900 | 3453 ft | 264 kts | 20° |
| 2026-04-30 21:27 | 8.72075 | -79.54266 | 3177 ft | 263 kts | 20° |
| 2026-04-30 21:27 | 8.73798 | -79.53631 | 2900 ft | 262 kts | 20° |
| 2026-04-30 21:28 | 8.77201 | -79.52377 | 2350 ft | 260 kts | 20° |
| 2026-04-30 21:28 | 8.78901 | -79.51748 | 2076 ft | 260 kts | 20° |
| 2026-04-30 21:28 | 8.82284 | -79.50576 | 1973 ft | 258 kts | 13° |
| 2026-04-30 21:29 | 8.84042 | -79.50208 | 1985 ft | 257 kts | 10° |
| 2026-04-30 21:29 | 8.88477 | -79.48567 | 2000 ft | 256 kts | 29° |
| 2026-04-30 21:30 | 8.91387 | -79.46858 | 1986 ft | 224 kts | 28° |
| 2026-04-30 21:31 | 8.94930 | -79.44856 | 1993 ft | 181 kts | 28° |
| 2026-04-30 21:31 | 8.97079 | -79.43632 | 1883 ft | 167 kts | 28° |
| 2026-04-30 21:32 | 8.98895 | -79.42597 | 1405 ft | 137 kts | 28° |
| 2026-04-30 21:32 | 8.99724 | -79.42126 | 1242 ft | 137 kts | 28° |
| 2026-04-30 21:32 | 9.00555 | -79.41653 | 1046 ft | 136 kts | 29° |
| 2026-04-30 21:32 | 9.01377 | -79.41185 | 864 ft | 136 kts | 29° |
| 2026-04-30 21:33 | 9.02199 | -79.40717 | 683 ft | 135 kts | 29° |
| 2026-04-30 21:33 | 9.03832 | -79.39787 | 324 ft | 134 kts | 29° |
| 2026-04-30 21:33 | 9.04646 | -79.39323 | 147 ft | 134 kts | 29° |
| 2026-04-30 21:34 | 9.05419 | -79.38882 | 84 ft | 115 kts | 30° |
| 2026-04-30 21:34 | 9.05991 | -79.38559 | 84 ft | 27 kts | 25° |
| 2026-04-30 21:34 | 9.06130 | -79.38475 | 84 ft | 24 kts | 32° |
| 2026-04-30 21:35 | 9.06262 | -79.38407 | 84 ft | 17 kts | 23° |
| 2026-04-30 21:35 | 9.06328 | -79.38383 | 84 ft | 2 kts | 6° |
| 2026-04-30 21:35 | 9.06358 | -79.38382 | 84 ft | 7 kts | 358° |
| 2026-04-30 21:35 | 9.06419 | -79.38385 | 84 ft | 10 kts | 359° |
| 2026-04-30 21:36 | 9.06497 | -79.38384 | 84 ft | 12 kts | 1° |
| 2026-04-30 21:36 | 9.06562 | -79.38383 | 84 ft | 8 kts | 1° |
| 2026-04-30 21:37 | 9.06659 | -79.38499 | 84 ft | 6 kts | 269° |
| 2026-04-30 21:37 | 9.06670 | -79.38544 | 84 ft | 7 kts | 297° |
| 2026-04-30 21:37 | 9.06700 | -79.38591 | 84 ft | 7 kts | 301° |
| 2026-04-30 21:37 | 9.06703 | -79.38596 | 84 ft | 0 kts | 302° |